Time;durP1;ratioP1;P1;durP2;ratioP2;P2;SDS_P1;SDS_P2;PMS_P1;PMS_P2;Temp;Humidity;BMP_temperature;BMP_pressure;BME280_temperature;BME280_humidity;BME280_pressure;Samples;Min_cycle;Max_cycle;Signal;HPM_P1;HPM_P2
2022/10/21 00:01:11;;;;;;;;;;;;;;;18.19;62.00;95317.09;5071380;28;20060;-77
2022/10/21 00:03:36;;;;;;;;;;;;;;;18.18;62.10;95316.31;5073513;28;20389;-77
2022/10/21 00:06:02;;;;;;;;;;;;;;;18.25;62.13;95304.91;5073086;28;20807;-77
2022/10/21 00:08:27;;;;;;;;;;;;;;;18.31;62.05;95300.81;5072746;28;20024;-76
2022/10/21 00:10:53;;;;;;;;;;;;;;;18.27;62.24;95308.06;5073390;28;20020;-76
2022/10/21 00:13:19;;;;;;;;;;;;;;;18.36;62.34;95305.94;5072694;28;20112;-77
2022/10/21 00:15:44;;;;;;;;;;;;;;;18.42;62.12;95309.16;5071840;28;20100;-76
2022/10/21 00:18:09;;;;;;;;;;;;;;;18.46;61.89;95299.25;5073271;28;20009;-77
2022/10/21 00:20:34;;;;;;;;;;;;;;;18.50;62.02;95294.72;5072195;28;20013;-77
2022/10/21 00:23:00;;;;;;;;;;;;;;;18.55;61.87;95289.06;5072588;28;20013;-77
2022/10/21 00:25:25;;;;;;;;;;;;;;;18.60;61.80;95285.31;5057822;28;20017;-76
2022/10/21 00:27:50;;;;;;;;;;;;;;;18.62;61.58;95283.06;5053002;28;20025;-76
2022/10/21 00:30:15;;;;;;;;;;;;;;;18.63;61.70;95285.41;5052002;28;20070;-76
2022/10/21 00:32:41;;;;;;;;;;;;;;;18.63;61.69;95287.31;5057287;28;20031;-76
2022/10/21 00:35:06;;;;;;;;;;;;;;;18.65;61.88;95293.91;5072597;28;20014;-77
2022/10/21 00:37:31;;;;;;;;;;;;;;;18.64;61.77;95281.56;5072073;28;20017;-77
2022/10/21 00:39:56;;;;;;;;;;;;;;;18.68;61.75;95292.44;5051579;28;20171;-76
2022/10/21 00:42:27;;;;;;;;;;;;;;;18.72;61.95;95284.44;5056243;28;20041;-77
2022/10/21 00:45:04;;;;;;;;;;;;;;;18.75;61.75;95281.84;5052653;28;20024;-76
2022/10/21 00:47:33;;;;;;;;;;;;;;;18.76;61.57;95286.09;5051734;28;20013;-76
2022/10/21 00:50:00;;;;;;;;;;;;;;;18.77;61.42;95274.16;5052823;28;20103;-76
2022/10/21 00:52:26;;;;;;;;;;;;;;;18.80;61.45;95276.16;5058970;28;20477;-76
2022/10/21 00:54:54;;;;;;;;;;;;;;;18.69;61.62;95285.94;5070791;28;20024;-76
2022/10/21 00:57:20;;;;;;;;;;;;;;;18.38;62.53;95297.53;5072757;28;20009;-77
2022/10/21 00:59:48;;;;;;;;;;;;;;;18.20;63.27;95291.72;5071383;28;20013;-76
2022/10/21 01:02:13;;;;;;;;;;;;;;;18.27;62.94;95283.81;5072442;28;20450;-76
2022/10/21 01:04:38;;;;;;;;;;;;;;;18.28;63.04;95277.31;5070762;28;20053;-77
2022/10/21 01:07:04;;;;;;;;;;;;;;;18.31;63.31;95281.19;5070799;28;20017;-76
2022/10/21 01:09:29;;;;;;;;;;;;;;;18.47;62.76;95281.16;5070906;28;20017;-77
2022/10/21 01:11:55;;;;;;;;;;;;;;;18.59;62.51;95279.16;5071084;28;20350;-76
2022/10/21 01:14:20;;;;;;;;;;;;;;;18.67;62.29;95280.84;5072353;28;20808;-76
2022/10/21 01:17:00;;;;;;;;;;;;;;;18.61;61.80;95274.19;5055272;28;20132;-76
2022/10/21 01:19:44;;;;;;;;;;;;;;;18.48;62.32;95277.34;5051003;28;20512;-77
2022/10/21 01:22:29;;;;;;;;;;;;;;;17.77;64.35;95290.69;5050858;28;20021;-77
2022/10/21 01:25:12;;;;;;;;;;;;;;;16.87;67.69;95281.28;5068490;28;20013;-76
2022/10/21 01:27:46;;;;;;;;;;;;;;;17.20;66.60;95277.59;5071341;28;20021;-77
2022/10/21 01:30:15;;;;;;;;;;;;;;;17.65;65.32;95280.72;5069776;28;20087;-77
2022/10/21 01:32:59;;;;;;;;;;;;;;;17.86;64.64;95279.72;5051760;28;20522;-76
2022/10/21 01:35:27;;;;;;;;;;;;;;;17.99;64.23;95273.16;5051274;28;20070;-75
2022/10/21 01:38:01;;;;;;;;;;;;;;;17.73;64.33;95275.56;5050566;28;20017;-76
2022/10/21 01:40:50;;;;;;;;;;;;;;;16.98;66.54;95274.31;5069746;28;20387;-76
2022/10/21 01:43:18;;;;;;;;;;;;;;;17.27;65.92;95272.41;5068543;28;20063;-76
2022/10/21 01:45:53;;;;;;;;;;;;;;;17.39;65.52;95258.91;5071084;28;20020;-78
2022/10/21 01:48:20;;;;;;;;;;;;;;;17.60;64.95;95251.38;5071605;28;20012;-75
2022/10/21 01:50:50;;;;;;;;;;;;;;;17.78;64.63;95254.56;5070267;28;20044;-75
2022/10/21 01:53:16;;;;;;;;;;;;;;;17.90;64.03;95245.63;5066000;28;20017;-75
2022/10/21 01:55:42;;;;;;;;;;;;;;;17.92;63.99;95243.38;5071096;28;20016;-76
2022/10/21 01:58:11;;;;;;;;;;;;;;;18.04;63.41;95237.13;5071407;28;20422;-75
2022/10/21 02:00:37;;;;;;;;;;;;;;;18.14;63.20;95245.44;5071277;28;20015;-76
2022/10/21 02:03:07;;;;;;;;;;;;;;;18.22;62.71;95238.31;5068663;28;20017;-77
2022/10/21 02:05:33;;;;;;;;;;;;;;;18.28;62.39;95239.59;5070956;28;20017;-76
2022/10/21 02:07:59;;;;;;;;;;;;;;;18.32;62.42;95226.19;5071142;28;20056;-76
2022/10/21 02:10:26;;;;;;;;;;;;;;;18.35;62.17;95230.91;5070274;28;20023;-76
2022/10/21 02:12:53;;;;;;;;;;;;;;;18.35;62.06;95230.91;5071191;28;20020;-76
2022/10/21 02:15:20;;;;;;;;;;;;;;;18.32;61.81;95231.59;5070031;28;20481;-76
2022/10/21 02:17:48;;;;;;;;;;;;;;;18.30;61.91;95231.94;5071118;28;20024;-76
2022/10/21 02:20:15;;;;;;;;;;;;;;;18.24;62.06;95233.34;5070856;28;20040;-75
2022/10/21 02:22:41;;;;;;;;;;;;;;;18.19;62.37;95234.41;5070273;28;20096;-76
2022/10/21 02:25:14;;;;;;;;;;;;;;;18.17;62.27;95231.28;5068194;28;20021;-75
2022/10/21 02:27:40;;;;;;;;;;;;;;;18.15;62.59;95225.47;5057479;28;20025;-75
2022/10/21 02:30:05;;;;;;;;;;;;;;;18.09;62.84;95221.47;5069466;28;20025;-75
2022/10/21 02:32:30;;;;;;;;;;;;;;;17.78;63.29;95226.88;5071127;28;20009;-76
2022/10/21 02:35:01;;;;;;;;;;;;;;;18.01;63.10;95229.72;5070233;28;20009;-76
2022/10/21 02:37:43;;;;;;;;;;;;;;;18.15;63.04;95219.28;5070815;28;20159;-76
2022/10/21 02:40:17;;;;;;;;;;;;;;;18.26;62.77;95214.16;5069497;28;20028;-77
2022/10/21 02:42:45;;;;;;;;;;;;;;;18.33;62.39;95209.72;5068832;28;20051;-76
2022/10/21 02:45:10;;;;;;;;;;;;;;;18.42;62.12;95204.13;5070613;28;20013;-76
2022/10/21 02:47:36;;;;;;;;;;;;;;;18.45;62.14;95200.72;5069399;28;20107;-76
2022/10/21 02:50:01;;;;;;;;;;;;;;;18.31;62.33;95190.41;5069244;28;20021;-76
2022/10/21 02:52:26;;;;;;;;;;;;;;;18.27;62.37;95180.69;5069504;28;20108;-76
2022/10/21 02:54:51;;;;;;;;;;;;;;;18.31;62.26;95171.56;5068178;28;20078;-76
2022/10/21 02:57:16;;;;;;;;;;;;;;;18.24;62.52;95163.34;5069479;28;20104;-76
2022/10/21 02:59:42;;;;;;;;;;;;;;;18.19;62.53;95163.63;5068187;28;20021;-75
2022/10/21 03:02:07;;;;;;;;;;;;;;;18.26;62.57;95158.38;5071171;28;20013;-76
2022/10/21 03:04:32;;;;;;;;;;;;;;;18.33;62.27;95160.47;5069744;28;20441;-76
2022/10/21 03:06:57;;;;;;;;;;;;;;;18.42;62.13;95161.03;5069054;28;20009;-76
2022/10/21 03:09:23;;;;;;;;;;;;;;;18.41;62.00;95167.53;5069219;28;20031;-76
2022/10/21 03:11:48;;;;;;;;;;;;;;;18.44;61.85;95177.63;5069533;28;20013;-76
2022/10/21 03:14:13;;;;;;;;;;;;;;;18.29;61.87;95173.06;5069282;28;20014;-75
2022/10/21 03:16:38;;;;;;;;;;;;;;;18.35;62.30;95179.72;5070114;28;20009;-75
2022/10/21 03:19:03;;;;;;;;;;;;;;;18.23;62.02;95142.94;5070625;28;20013;-76
2022/10/21 03:21:29;;;;;;;;;;;;;;;18.54;61.98;95182.47;5068289;28;20020;-75
2022/10/21 03:23:54;;;;;;;;;;;;;;;18.62;61.76;95176.06;5068577;28;20021;-75
2022/10/21 03:26:19;;;;;;;;;;;;;;;18.68;61.39;95184.66;5068759;28;20048;-75
2022/10/21 03:28:44;;;;;;;;;;;;;;;18.74;61.51;95182.50;5070201;28;20009;-75
2022/10/21 03:31:10;;;;;;;;;;;;;;;18.78;61.06;95176.03;5070650;28;20040;-76
2022/10/21 03:33:35;;;;;;;;;;;;;;;18.81;61.10;95178.03;5069817;28;20496;-77
2022/10/21 03:36:00;;;;;;;;;;;;;;;18.81;61.01;95174.53;5070090;28;20013;-76
2022/10/21 03:38:25;;;;;;;;;;;;;;;18.75;60.71;95181.38;5070261;28;20013;-76
2022/10/21 03:40:50;;;;;;;;;;;;;;;18.70;60.99;95171.66;5069601;28;20481;-76
2022/10/21 03:43:16;;;;;;;;;;;;;;;18.64;60.95;95165.72;5069081;28;20384;-76
2022/10/21 03:45:41;;;;;;;;;;;;;;;18.59;61.25;95170.63;5069259;28;20017;-77
2022/10/21 03:48:06;;;;;;;;;;;;;;;18.53;61.14;95164.75;5070258;28;20016;-75
2022/10/21 03:50:31;;;;;;;;;;;;;;;18.47;61.57;95162.66;5069016;28;20489;-75
2022/10/21 03:52:58;;;;;;;;;;;;;;;18.47;61.70;95163.44;5070202;28;20019;-76
2022/10/21 03:55:24;;;;;;;;;;;;;;;18.52;61.55;95154.28;5067921;28;20036;-76
2022/10/21 03:57:49;;;;;;;;;;;;;;;18.54;61.48;95142.06;5068647;28;20013;-76
2022/10/21 04:00:14;;;;;;;;;;;;;;;18.52;61.17;95141.59;5070266;28;20009;-76
2022/10/21 04:02:40;;;;;;;;;;;;;;;18.46;61.24;95118.78;5069287;28;20019;-76
2022/10/21 04:05:05;;;;;;;;;;;;;;;18.34;61.30;95114.34;5071533;28;20013;-75
2022/10/21 04:07:31;;;;;;;;;;;;;;;18.25;61.65;95116.44;5073351;28;20040;-76
2022/10/21 04:09:56;;;;;;;;;;;;;;;18.14;61.74;95110.06;5072296;28;20023;-77
2022/10/21 04:12:21;;;;;;;;;;;;;;;18.05;61.87;95109.47;5072683;28;20585;-76
2022/10/21 04:14:46;;;;;;;;;;;;;;;17.95;62.09;95116.19;5072065;28;20013;-75
2022/10/21 04:17:11;;;;;;;;;;;;;;;17.86;62.37;95107.53;5072529;28;20083;-76
2022/10/21 04:19:37;;;;;;;;;;;;;;;17.80;62.38;95104.31;5073076;28;20024;-75
2022/10/21 04:22:02;;;;;;;;;;;;;;;17.75;62.84;95093.84;5073510;28;20138;-75
2022/10/21 04:24:27;;;;;;;;;;;;;;;17.74;63.07;95086.13;5072551;28;20032;-76
2022/10/21 04:26:53;;;;;;;;;;;;;;;17.79;63.06;95091.22;5072717;28;20020;-75
2022/10/21 04:29:18;;;;;;;;;;;;;;;17.85;62.99;95092.50;5072133;28;20021;-76
2022/10/21 04:31:43;;;;;;;;;;;;;;;17.87;62.58;95092.97;5072017;28;20013;-75
2022/10/21 04:34:09;;;;;;;;;;;;;;;17.75;63.07;95098.44;5071065;28;20013;-75
2022/10/21 04:36:34;;;;;;;;;;;;;;;17.79;62.64;95088.53;5071151;28;20014;-74
2022/10/21 04:38:59;;;;;;;;;;;;;;;17.76;62.57;95090.03;5072395;28;20016;-74
2022/10/21 04:41:24;;;;;;;;;;;;;;;17.66;62.89;95087.84;5070000;28;20112;-73
2022/10/21 04:43:50;;;;;;;;;;;;;;;17.61;62.94;95075.44;5072516;28;20015;-73
2022/10/21 04:46:15;;;;;;;;;;;;;;;17.54;63.06;95059.13;5072070;28;20015;-72
2022/10/21 04:48:41;;;;;;;;;;;;;;;17.44;63.03;95051.59;5071088;28;20013;-74
2022/10/21 04:51:06;;;;;;;;;;;;;;;17.34;63.22;95049.44;5071628;28;20100;-73
2022/10/21 04:53:31;;;;;;;;;;;;;;;17.28;63.42;95048.16;5072438;28;20013;-74
2022/10/21 04:55:57;;;;;;;;;;;;;;;17.20;63.65;95047.22;5071164;28;20013;-74
2022/10/21 04:58:22;;;;;;;;;;;;;;;17.16;63.68;95049.03;5070896;28;20024;-74
2022/10/21 05:00:48;;;;;;;;;;;;;;;17.13;63.84;95042.44;5070843;28;20017;-75
2022/10/21 05:03:14;;;;;;;;;;;;;;;17.10;63.87;95043.16;5070832;28;20066;-74
2022/10/21 05:05:39;;;;;;;;;;;;;;;16.89;64.95;95045.31;5070310;28;20017;-74
2022/10/21 05:08:04;;;;;;;;;;;;;;;17.11;64.31;95042.03;5071850;28;20414;-75
2022/10/21 05:10:30;;;;;;;;;;;;;;;17.19;64.03;95034.88;5069997;28;20491;-74
2022/10/21 05:12:56;;;;;;;;;;;;;;;17.18;64.09;95033.34;5066499;28;20013;-75
2022/10/21 05:15:21;;;;;;;;;;;;;;;17.22;64.08;95022.69;5069088;28;20040;-75
2022/10/21 05:17:46;;;;;;;;;;;;;;;17.17;64.29;95014.88;5069013;28;20622;-75
2022/10/21 05:20:11;;;;;;;;;;;;;;;17.15;64.24;95013.31;5072231;28;20013;-75
2022/10/21 05:22:37;;;;;;;;;;;;;;;17.19;63.87;94993.78;5071634;28;20017;-74
2022/10/21 05:25:03;;;;;;;;;;;;;;;17.24;63.88;95001.59;5068637;28;20067;-74
2022/10/21 05:27:28;;;;;;;;;;;;;;;17.36;63.40;95012.25;5072038;28;20447;-73
2022/10/21 05:29:53;;;;;;;;;;;;;;;17.47;62.77;95017.88;5070478;28;20609;-70
2022/10/21 05:32:19;;;;;;;;;;;;;;;17.57;62.33;95009.25;5069579;28;20119;-71
2022/10/21 05:34:44;;;;;;;;;;;;;;;17.59;62.26;95015.84;5068520;28;20095;-74
2022/10/21 05:37:10;;;;;;;;;;;;;;;17.61;61.86;95021.66;5069659;28;20124;-70
2022/10/21 05:39:35;;;;;;;;;;;;;;;17.69;61.99;95019.88;5070676;28;20381;-73
2022/10/21 05:42:00;;;;;;;;;;;;;;;17.77;61.91;95010.88;5069471;28;20063;-72
2022/10/21 05:44:26;;;;;;;;;;;;;;;17.77;61.80;95015.47;5069291;28;20024;-70
2022/10/21 05:46:51;;;;;;;;;;;;;;;17.74;61.49;95016.19;5068012;28;20029;-70
2022/10/21 05:49:16;;;;;;;;;;;;;;;17.80;61.61;95020.13;5068963;28;20021;-71
2022/10/21 05:51:43;;;;;;;;;;;;;;;17.82;61.51;95012.50;5071318;28;20060;-79
2022/10/21 05:54:08;;;;;;;;;;;;;;;17.92;61.32;95018.13;5072276;28;20009;-73
2022/10/21 05:56:33;;;;;;;;;;;;;;;17.99;61.25;95016.69;5069555;28;20484;-71
2022/10/21 05:58:59;;;;;;;;;;;;;;;18.06;60.70;95014.13;5071324;28;20010;-69
2022/10/21 06:01:24;;;;;;;;;;;;;;;18.10;60.70;95001.53;5070615;28;20493;-71
2022/10/21 06:03:49;;;;;;;;;;;;;;;18.12;60.34;95021.59;5070777;28;20448;-74
2022/10/21 06:06:14;;;;;;;;;;;;;;;18.12;60.26;95028.88;5087694;28;20024;-76
2022/10/21 06:08:40;;;;;;;;;;;;;;;18.15;60.54;95020.09;5086370;28;20481;-71
2022/10/21 06:11:09;;;;;;;;;;;;;;;18.21;60.09;95023.28;5068978;28;20113;-71
2022/10/21 06:13:35;;;;;;;;;;;;;;;18.26;59.96;95025.69;5071084;28;20017;-72
2022/10/21 06:16:02;;;;;;;;;;;;;;;18.26;59.64;95022.97;5069884;28;20017;-74
2022/10/21 06:18:28;;;;;;;;;;;;;;;18.35;59.70;95018.16;5069720;28;20040;-75
2022/10/21 06:20:53;;;;;;;;;;;;;;;18.40;59.19;95021.34;5069706;28;20381;-74
2022/10/21 06:23:18;;;;;;;;;;;;;;;18.32;59.22;94991.94;5070976;28;20468;-72
2022/10/21 06:25:53;;;;;;;;;;;;;;;18.56;59.42;95023.94;5069936;28;20025;-72
2022/10/21 06:28:18;;;;;;;;;;;;;;;18.63;58.92;95037.56;5069452;28;20016;-74
2022/10/21 06:30:43;;;;;;;;;;;;;;;18.72;58.64;95036.56;5070263;28;20518;-71
2022/10/21 06:33:09;;;;;;;;;;;;;;;18.80;58.65;95035.56;5068239;28;20053;-71
2022/10/21 06:35:34;;;;;;;;;;;;;;;18.95;57.94;95029.28;5069721;28;20043;-72
2022/10/21 06:37:59;;;;;;;;;;;;;;;19.08;57.62;95024.47;5069147;28;20013;-74
2022/10/21 06:40:24;;;;;;;;;;;;;;;19.09;57.31;95018.72;5070444;28;20024;-72
2022/10/21 06:42:50;;;;;;;;;;;;;;;19.20;57.35;95018.91;5070015;28;20040;-71
2022/10/21 06:45:15;;;;;;;;;;;;;;;19.22;56.86;95016.59;5067936;28;20018;-71
2022/10/21 06:47:40;;;;;;;;;;;;;;;19.23;56.65;95007.38;5069123;28;20013;-72
2022/10/21 06:50:05;;;;;;;;;;;;;;;19.27;56.58;95010.13;5067995;28;20385;-72
2022/10/21 06:52:31;;;;;;;;;;;;;;;19.34;56.41;95004.84;5068969;28;20017;-72
2022/10/21 06:54:56;;;;;;;;;;;;;;;19.39;56.39;94991.03;5069423;28;20373;-73
2022/10/21 06:57:21;;;;;;;;;;;;;;;19.36;56.03;94983.69;5069461;28;20024;-74
2022/10/21 06:59:47;;;;;;;;;;;;;;;19.49;55.95;94995.81;5069984;28;20009;-73
2022/10/21 07:02:12;;;;;;;;;;;;;;;19.55;55.64;95002.47;5070214;28;20020;-74
2022/10/21 07:04:37;;;;;;;;;;;;;;;19.61;55.36;94995.63;5069177;28;20024;-74
2022/10/21 07:07:02;;;;;;;;;;;;;;;19.71;55.19;94995.00;5067858;28;20018;-74
2022/10/21 07:09:28;;;;;;;;;;;;;;;19.78;54.94;94988.13;5069093;28;20025;-72
2022/10/21 07:11:53;;;;;;;;;;;;;;;19.81;55.03;94990.09;5068960;28;20013;-72
2022/10/21 07:14:18;;;;;;;;;;;;;;;19.91;54.61;94990.25;5070267;28;20035;-75
2022/10/21 07:16:43;;;;;;;;;;;;;;;19.87;54.41;94985.94;5069711;28;20021;-74
2022/10/21 07:19:09;;;;;;;;;;;;;;;19.85;54.28;94985.53;5068302;28;20028;-72
2022/10/21 07:21:34;;;;;;;;;;;;;;;19.97;54.18;94985.31;5106091;22;20029;-71
2022/10/21 07:24:00;;;;;;;;;;;;;;;20.09;54.15;94993.16;5101390;28;20017;-71
2022/10/21 07:26:26;;;;;;;;;;;;;;;20.20;53.79;94991.34;5089693;28;20103;-71
2022/10/21 07:28:53;;;;;;;;;;;;;;;20.31;53.25;94977.19;5088495;28;20020;-71
2022/10/21 07:31:19;;;;;;;;;;;;;;;20.32;52.61;94967.94;5089962;28;20064;-71
2022/10/21 07:33:44;;;;;;;;;;;;;;;20.48;52.71;94972.00;5086884;28;20542;-71
2022/10/21 07:36:21;;;;;;;;;;;;;;;20.56;52.54;94962.03;5089603;28;20008;-71
2022/10/21 07:38:47;;;;;;;;;;;;;;;20.66;52.16;94965.97;5089917;28;20017;-70
2022/10/21 07:41:17;;;;;;;;;;;;;;;20.57;51.27;94966.28;5091895;28;20025;-71
2022/10/21 07:43:43;;;;;;;;;;;;;;;20.60;51.61;94957.44;5092463;28;20013;-72
2022/10/21 07:46:08;;;;;;;;;;;;;;;20.56;51.16;94953.91;5091323;28;20012;-71
2022/10/21 07:48:33;;;;;;;;;;;;;;;20.72;51.05;94964.47;5091930;28;20145;-70
2022/10/21 07:51:05;;;;;;;;;;;;;;;20.81;51.12;94966.88;5091455;28;20029;-70
2022/10/21 07:53:31;;;;;;;;;;;;;;;20.99;50.75;94954.31;5087484;28;20017;-70
2022/10/21 07:56:06;;;;;;;;;;;;;;;21.15;50.67;94951.31;5091715;28;20096;-70
2022/10/21 07:58:32;;;;;;;;;;;;;;;21.25;49.84;94948.69;5087767;28;20020;-71
2022/10/21 08:00:58;;;;;;;;;;;;;;;21.23;49.52;94947.50;5072796;28;20017;-70
2022/10/21 08:03:23;;;;;;;;;;;;;;;21.38;49.47;94945.69;5073010;28;20020;-69
2022/10/21 08:05:50;;;;;;;;;;;;;;;21.40;48.90;94965.06;5088542;28;20017;-70
2022/10/21 08:08:15;;;;;;;;;;;;;;;21.39;48.93;94953.41;5093066;28;20009;-69
2022/10/21 08:10:41;;;;;;;;;;;;;;;21.54;48.99;94946.94;5092032;28;20472;-71
2022/10/21 08:13:06;;;;;;;;;;;;;;;21.68;48.77;94940.06;5091621;28;20019;-70
2022/10/21 08:15:31;;;;;;;;;;;;;;;21.77;48.04;94943.19;5091475;28;20043;-71
2022/10/21 08:17:56;;;;;;;;;;;;;;;21.82;47.70;94947.47;5092904;28;20017;-71
2022/10/21 08:20:21;;;;;;;;;;;;;;;21.96;47.45;94945.59;5080392;28;20373;-71
2022/10/21 08:22:47;;;;;;;;;;;;;;;22.01;47.07;94949.88;5079595;28;20024;-70
2022/10/21 08:25:15;;;;;;;;;;;;;;;22.10;46.99;94946.78;5081238;28;20056;-71
2022/10/21 08:27:40;;;;;;;;;;;;;;;22.20;46.56;94940.66;5071349;28;20535;-71
2022/10/21 08:30:06;;;;;;;;;;;;;;;22.13;46.14;94948.78;5072516;28;20021;-71
2022/10/21 08:32:31;;;;;;;;;;;;;;;22.42;46.19;94941.47;5090115;28;20027;-71
2022/10/21 08:34:56;;;;;;;;;;;;;;;22.47;45.91;94944.63;5089818;28;20020;-71
2022/10/21 08:37:21;;;;;;;;;;;;;;;22.64;45.68;94947.72;5092717;28;20083;-71
2022/10/21 08:39:46;;;;;;;;;;;;;;;22.63;45.91;94946.19;5091274;28;20392;-71
2022/10/21 08:42:15;;;;;;;;;;;;;;;22.78;45.59;94948.53;5089868;28;20535;-71
2022/10/21 08:44:40;;;;;;;;;;;;;;;22.92;45.47;94950.47;5091744;28;20107;-71
2022/10/21 08:47:28;;;;;;;;;;;;;;;23.07;45.42;94949.31;5091909;28;20060;-71
2022/10/21 08:49:59;;;;;;;;;;;;;;;23.15;45.02;94947.38;5090178;28;20028;-70
2022/10/21 08:52:37;;;;;;;;;;;;;;;23.15;44.36;94944.66;5090048;28;20422;-67
2022/10/21 08:55:04;;;;;;;;;;;;;;;23.25;44.43;94956.66;5091681;28;20009;-68
2022/10/21 08:57:33;;;;;;;;;;;;;;;23.28;44.77;94953.16;5089067;28;20020;-68
2022/10/21 08:59:58;;;;;;;;;;;;;;;23.30;44.74;94951.63;5088884;28;20013;-68
2022/10/21 09:02:28;;;;;;;;;;;;;;;23.28;44.06;94956.66;5089098;28;20020;-70
2022/10/21 09:05:09;;;;;;;;;;;;;;;23.24;44.55;94961.31;5088360;28;20405;-69
2022/10/21 09:07:53;;;;;;;;;;;;;;;23.16;44.61;94959.00;5090308;28;20111;-69
2022/10/21 09:10:31;;;;;;;;;;;;;;;23.07;45.63;94962.88;5088590;28;20027;-69
2022/10/21 09:12:56;;;;;;;;;;;;;;;22.99;45.51;94969.47;5090218;28;20043;-69
2022/10/21 09:15:24;;;;;;;;;;;;;;;22.95;44.95;94962.50;5091420;28;20013;-69
2022/10/21 09:17:59;;;;;;;;;;;;;;;22.93;44.94;94971.03;5089637;28;20066;-69
2022/10/21 09:20:44;;;;;;;;;;;;;;;22.91;44.55;94975.28;5091557;28;20496;-69
2022/10/21 09:23:28;;;;;;;;;;;;;;;23.00;44.27;94986.53;5080290;28;20024;-70
2022/10/21 09:25:54;;;;;;;;;;;;;;;23.09;44.08;94984.19;5091224;28;20111;-69
2022/10/21 09:28:19;;;;;;;;;;;;;;;23.18;43.40;94986.50;5091474;28;20095;-70
2022/10/21 09:30:44;;;;;;;;;;;;;;;23.29;43.17;94990.78;5088871;28;20021;-70
2022/10/21 09:33:22;;;;;;;;;;;;;;;23.46;43.38;94991.16;5090025;28;20013;-69
2022/10/21 09:36:10;;;;;;;;;;;;;;;23.30;42.81;95003.19;5090838;28;20037;-70
2022/10/21 09:38:47;;;;;;;;;;;;;;;22.95;43.26;95022.16;5081338;28;20578;-70
2022/10/21 09:41:15;;;;;;;;;;;;;;;22.82;43.39;95040.69;5069586;28;20132;-69
2022/10/21 09:43:40;;;;;;;;;;;;;;;22.00;45.01;95045.81;5071059;28;20013;-69
2022/10/21 09:46:08;;;;;;;;;;;;;;;21.02;46.96;95061.69;5069158;28;20109;-69
2022/10/21 09:49:06;;;;;;;;;;;;;;;19.23;52.44;95102.53;5071112;28;20009;-69
2022/10/21 09:51:32;;;;;;;;;;;;;;;18.53;56.15;95121.66;5036940;28;20481;-69
2022/10/21 09:54:01;;;;;;;;;;;;;;;17.78;60.53;95130.03;5069361;28;20092;-68
2022/10/21 09:56:29;;;;;;;;;;;;;;;17.39;63.88;95127.16;5070045;28;20485;-68
2022/10/21 09:59:08;;;;;;;;;;;;;;;16.92;65.77;95140.56;5069538;28;20358;-68
2022/10/21 10:01:35;;;;;;;;;;;;;;;17.21;64.57;95156.28;5074040;28;20103;-68
2022/10/21 10:04:08;;;;;;;;;;;;;;;17.15;64.94;95134.28;5090157;28;20017;-68
2022/10/21 10:06:33;;;;;;;;;;;;;;;17.12;64.92;95137.63;5088975;28;20062;-68
2022/10/21 10:09:17;;;;;;;;;;;;;;;16.65;66.26;95159.00;5089183;28;20013;-68
2022/10/21 10:12:03;;;;;;;;;;;;;;;17.80;63.34;95141.22;5088334;28;20035;-68
2022/10/21 10:14:28;;;;;;;;;;;;;;;17.04;64.29;95149.31;5089051;28;20027;-68
2022/10/21 10:16:54;;;;;;;;;;;;;;;17.86;62.48;95153.25;5088907;28;20013;-68
2022/10/21 10:19:19;;;;;;;;;;;;;;;17.41;63.54;95159.88;5090444;28;20380;-68
2022/10/21 10:21:46;;;;;;;;;;;;;;;16.62;66.60;95175.78;5089146;28;20038;-68
2022/10/21 10:24:16;;;;;;;;;;;;;;;17.18;64.76;95162.34;5089746;28;20369;-68
2022/10/21 10:26:42;;;;;;;;;;;;;;;16.72;66.26;95183.41;5089950;28;20008;-68
2022/10/21 10:29:13;;;;;;;;;;;;;;;16.49;67.23;95188.50;5088850;28;20046;-67
2022/10/21 10:31:47;;;;;;;;;;;;;;;16.87;66.18;95177.28;5088588;28;20400;-68
2022/10/21 10:34:25;;;;;;;;;;;;;;;17.77;63.15;95193.03;5088758;28;20020;-68
2022/10/21 10:36:58;;;;;;;;;;;;;;;16.62;67.12;95199.97;5088405;28;20128;-69
2022/10/21 10:39:29;;;;;;;;;;;;;;;17.51;64.07;95185.47;5089665;28;20016;-69
2022/10/21 10:41:55;;;;;;;;;;;;;;;17.04;65.86;95184.25;5089043;28;20019;-68
2022/10/21 10:44:40;;;;;;;;;;;;;;;17.06;65.73;95179.34;5089987;28;20107;-69
2022/10/21 10:47:06;;;;;;;;;;;;;;;17.33;64.71;95152.75;5089187;28;20009;-68
2022/10/21 10:49:37;;;;;;;;;;;;;;;17.92;63.51;95149.19;5089799;28;20012;-68
2022/10/21 10:52:03;;;;;;;;;;;;;;;18.40;61.00;95149.84;5088721;28;20012;-68
2022/10/21 10:54:28;;;;;;;;;;;;;;;19.11;59.80;95139.69;5089827;28;20091;-68
2022/10/21 10:56:53;;;;;;;;;;;;;;;19.56;58.53;95149.72;5075581;28;20525;-69
2022/10/21 10:59:18;;;;;;;;;;;;;;;18.54;59.70;95177.06;5085242;28;20010;-68
2022/10/21 11:01:48;;;;;;;;;;;;;;;18.49;60.56;95184.66;5069895;28;20104;-68
2022/10/21 11:04:33;;;;;;;;;;;;;;;19.39;58.77;95180.63;5068358;28;20017;-69
2022/10/21 11:07:22;;;;;;;;;;;;;;;19.23;57.98;95191.53;5079655;28;20099;-68
2022/10/21 11:09:49;;;;;;;;;;;;;;;19.63;57.59;95195.72;5081224;28;20406;-69
2022/10/21 11:12:19;;;;;;;;;;;;;;;19.96;56.83;95178.91;5088470;28;20044;-68
2022/10/21 11:14:48;;;;;;;;;;;;;;;19.95;56.36;95201.63;5091467;28;20009;-69
2022/10/21 11:17:16;;;;;;;;;;;;;;;19.74;56.73;95212.09;5093795;28;20417;-68
2022/10/21 11:19:53;;;;;;;;;;;;;;;19.69;57.06;95218.56;5091759;28;20052;-69
2022/10/21 11:22:27;;;;;;;;;;;;;;;19.91;56.96;95224.31;5093620;28;20016;-68
2022/10/21 11:24:54;;;;;;;;;;;;;;;19.77;56.86;95249.16;5093034;28;20011;-69
2022/10/21 11:27:43;;;;;;;;;;;;;;;19.63;57.77;95225.41;5094182;28;20017;-69
2022/10/21 11:30:22;;;;;;;;;;;;;;;19.64;57.33;95220.78;5083940;28;20023;-69
2022/10/21 11:32:47;;;;;;;;;;;;;;;19.69;57.35;95215.84;5090479;28;20111;-68
2022/10/21 11:35:15;;;;;;;;;;;;;;;19.77;57.23;95221.38;5091792;28;20107;-69
2022/10/21 11:37:59;;;;;;;;;;;;;;;18.96;59.96;95235.69;5092338;28;20020;-69
2022/10/21 11:40:39;;;;;;;;;;;;;;;18.22;62.42;95237.50;5092184;28;20046;-69
2022/10/21 11:43:12;;;;;;;;;;;;;;;18.78;60.71;95221.84;5090288;28;20480;-69
2022/10/21 11:45:40;;;;;;;;;;;;;;;18.92;60.72;95224.81;5091245;28;20416;-69
2022/10/21 11:48:24;;;;;;;;;;;;;;;19.55;58.79;95221.00;5093347;28;20054;-69
2022/10/21 11:50:57;;;;;;;;;;;;;;;19.94;57.61;95221.66;5093397;28;20070;-69
2022/10/21 11:53:41;;;;;;;;;;;;;;;20.20;56.70;95212.03;5093612;28;20020;-68
2022/10/21 11:56:06;;;;;;;;;;;;;;;19.70;58.11;95206.63;5073033;28;20013;-68
2022/10/21 11:58:37;;;;;;;;;;;;;;;20.02;57.30;95208.31;5073087;28;20017;-69
2022/10/21 12:01:11;;;;;;;;;;;;;;;20.57;55.32;95211.41;5071430;28;20013;-69
2022/10/21 12:03:42;;;;;;;;;;;;;;;20.78;54.82;95211.72;5072696;28;20012;-69
2022/10/21 12:06:20;;;;;;;;;;;;;;;21.48;53.90;95210.19;5078275;28;20020;-69
2022/10/21 12:08:52;;;;;;;;;;;;;;;21.89;52.70;95207.44;5091442;28;20103;-69
2022/10/21 12:11:23;;;;;;;;;;;;;;;22.20;52.00;95214.28;5092929;28;20372;-69
2022/10/21 12:14:02;;;;;;;;;;;;;;;22.52;50.94;95206.34;5092832;28;20013;-69
2022/10/21 12:16:31;;;;;;;;;;;;;;;22.48;50.31;95208.28;5092416;28;20061;-69
2022/10/21 12:18:59;;;;;;;;;;;;;;;22.68;49.70;95212.28;5091246;28;20017;-69
2022/10/21 12:21:26;;;;;;;;;;;;;;;22.63;49.50;95209.94;5091302;28;20025;-69
2022/10/21 12:23:56;;;;;;;;;;;;;;;22.80;49.50;95198.38;5092760;28;20009;-69
2022/10/21 12:26:34;;;;;;;;;;;;;;;22.64;49.24;95202.56;5090079;28;20365;-69
2022/10/21 12:29:05;;;;;;;;;;;;;;;22.26;49.74;95210.84;5091563;28;20039;-69
2022/10/21 12:31:30;;;;;;;;;;;;;;;22.42;49.59;95209.78;5091172;28;20013;-69
2022/10/21 12:33:56;;;;;;;;;;;;;;;21.62;50.27;95204.13;5092468;28;20019;-69
2022/10/21 12:36:21;;;;;;;;;;;;;;;21.70;50.35;95217.38;5090637;28;20468;-69
2022/10/21 12:38:48;;;;;;;;;;;;;;;21.00;52.15;95210.03;5090999;28;20023;-69
2022/10/21 12:41:22;;;;;;;;;;;;;;;21.08;52.20;95219.00;5091265;28;20017;-69
2022/10/21 12:43:52;;;;;;;;;;;;;;;21.47;51.14;95214.03;5090797;28;20012;-69
2022/10/21 12:46:22;;;;;;;;;;;;;;;22.03;50.30;95211.06;5091832;28;20096;-69
2022/10/21 12:48:48;;;;;;;;;;;;;;;21.97;49.81;95212.56;5091088;28;20027;-70
2022/10/21 12:51:25;;;;;;;;;;;;;;;21.87;50.17;95215.19;5092359;28;20111;-69
2022/10/21 12:53:50;;;;;;;;;;;;;;;21.82;50.33;95215.53;5090649;28;20434;-69